Tiempo atmosférico en la estación meteorológica de Autilla del Pino, Palencia (874 m.)



Fecha
DESCASC
Temp. máxima en grados centígrados (hora)
DESCASC
Temp. mínima en grados centígrados (hora)
DESCASC
Temp. media en grados centígrados
DESCASC
Racha de viento máxima en m/sg (hora)
DESCASC
Velocidad máxima media en intervalos de 10 minutos(hora)
DESCASC
Precipitaciones diarias en mm
DESCASC
Precipitaciones de 00:00 a 06:00 en mm
DESCASC
Precipitaciones de 06:00 a 12:00 en mm
DESCASC
Precipitaciones de 12:00 a 18:00 en mm
DESCASC
Precipitaciones de 18:00 a 24:00 en mm
DESCASC
05-04-2020 17.2 (14:40) 6.5 (01:00) 11.9 10.56 (15:00) 7.22 (13:50) 6.4 0 0 0 6.4
04-04-2020 17.8 (17:50) -0.5 (07:50) 8.6 10.83 (19:40) 8.06 (19:20) 0 0 0 0 0
03-04-2020 13.3 (17:30) -1.5 (07:20) 5.9 8.61 (02:00) 6.11 (02:00) 0 0 0 0 0
02-04-2020 11.8 (17:40) 2.2 (00:00) 7 10.83 (14:00) 7.5 (14:00) 0.8 0.5 0.3 0 0
01-04-2020 12.1 (13:30) 2.8 (00:00) 7.5 8.89 (17:50) 6.67 (17:50) 7.3 2.4 0 2.4 2.5
31-03-2020 7.6 (17:40) -2.1 (-00:0) 2.8 13.06 (10:10) 9.17 (11:00) 0.5 0 0 0 0.5
30-03-2020 5.7 (15:20) -1.2 (-00:0) 2.2 14.72 (05:10) 9.72 (00:40) 0 0 0 0 0
29-03-2020 15 (17:50) -0.6 (-00:0) 7.2 13.06 (20:50) 9.44 (20:50) 0 0 0 0 0
28-03-2020 15.3 (17:30) -2.3 (-00:0) 6.5 5.83 (22:20) 4.72 (22:30) 0 0 0 0 0
27-03-2020 11.8 (16:20) -3.2 (-00:0) 4.3 11.67 (15:10) 7.22 (14:10) 0 0 0 0 0
26-03-2020 11.6 (16:30) -3 (-00:0) 4.3 10.56 (23:10) 7.5 (23:10) 0 0 0 0 0
25-03-2020 16.3 (16:30) 2 (00:00) 9.1 10.83 (14:10) 4.72 (21:40) 0 0 0 0 0
24-03-2020 15.6 (17:30) 3.1 (00:00) 9.4 9.44 (14:00) 6.67 (09:50) 0 0 0 0 0
23-03-2020 14 (15:40) 1.9 (00:00) 7.9 10 (12:20) 6.11 (12:20) 0 0 0 0 0
22-03-2020 14.4 (14:40) 4.3 (23:59) 9.3 8.61 (16:10) 5.83 (16:20) 0 0 0 0 0
21-03-2020 13.8 (15:40) 3.4 (00:00) 8.6 8.33 (11:50) 5 (11:30) 1.7 0 0 0 1.7
20-03-2020 15.2 (17:10) 5.4 (00:00) 10.3 7.78 (18:00) 6.11 (18:00) 1 0 0 0.2 0.8
19-03-2020 16.5 (16:00) 6 (00:00) 11.3 7.5 (14:50) 5.56 (02:30) 0 0 0 0 0
18-03-2020 18.4 (16:30) 2.8 (00:00) 10.6 8.61 (01:00) 6.94 (01:00) 0 0 0 0 0
17-03-2020 12.7 (15:50) 3.7 (00:00) 8.2 16.39 (00:10) 12.5 (00:50) 0 0 0 0 0
16-03-2020 7.3 (14:30) -0.9 (-00:0) 3.2 18.89 (15:20) 12.78 (15:20) 6.2 3.2 2.9 0.1 0
15-03-2020 18.2 (14:30) 1.4 (00:00) 9.8 13.33 (17:20) 9.44 (17:00) 0 0 0 0 0
14-03-2020 17.4 (16:40) -2 (-00:0) 7.7 7.22 (00:50) 5.56 (01:00) 0 0 0 0 0
13-03-2020 12.6 (14:00) 2.9 (23:59) 7.8 13.89 (07:00) 10.56 (07:50) 0 0 0 0 0
12-03-2020 18 (13:40) 6.8 (00:00) 12.4 12.5 (21:50) 9.17 (21:50) 0 0 0 0 0
11-03-2020 21.9 (15:50) 3 (00:00) 12.4 7.78 (01:30) 5.83 (01:30) 0 0 0 0 0
10-03-2020 18.7 (16:40) 1.4 (00:00) 10.1 7.78 (13:50) 5.83 (23:30) 0 0 0 0 0
09-03-2020 13.3 (17:20) 0 (00:00) 6.7 13.61 (01:10) 9.17 (01:10) 0 0 0 0 0
08-03-2020 13.3 (16:20) -1.2 (-00:0) 6.1 11.94 (22:20) 8.33 (22:20) 0 0 0 0 0

Gráficas

Temp. máximas Temp. mínimas Temp. medias Precipitaciones Rachas de viento máximas Velocidades máximas media en intervalos de 10 minutos

Datos horarios

Fecha y hora oficial Temperatura (ºC) Velocidad del viento (km/h) Dirección del viento Racha (km/h) Dirección de racha Precipitación (mm) Presión (hPa) Tendencia (hPa) Humedad (%)
2020-04-06 23:00:00 9.3 3 Sur 5 Sur 0.2 -- -- 94
2020-04-06 22:00:00 9.2 0 Calma 9 Oeste 0 -- -- 92
2020-04-06 21:00:00 9.3 8 Oeste 17 Oeste 0 -- -- 89
2020-04-06 20:00:00 10.2 14 Oeste 30 Oeste 0 -- -- 82
2020-04-06 19:00:00 11.6 19 Oeste 30 Oeste 0 -- -- 70
2020-04-06 18:00:00 11.5 17 Oeste 35 Oeste 0.1 -- -- 82
2020-04-06 17:00:00 11.9 22 Sudoeste 28 Sudoeste 0 -- -- 67
2020-04-06 16:00:00 14 19 Oeste 30 Oeste 0 -- -- 61
2020-04-06 15:00:00 13.7 18 Oeste 26 Oeste 0 -- -- 65
2020-04-06 14:00:00 13.3 19 Oeste 26 Oeste 0 -- -- 68
2020-04-06 13:00:00 12.6 19 Oeste 26 Sudoeste 0 -- -- 75
2020-04-06 12:00:00 11.7 23 Oeste 34 Oeste 0 -- -- 82
2020-04-06 11:00:00 10.3 24 Oeste 35 Sudoeste 0 -- -- 94
2020-04-06 10:00:00 10.2 24 Oeste 33 Oeste 0 -- -- 97
2020-04-06 09:00:00 9.9 15 Sudoeste 23 Sudoeste 0 -- -- 98
2020-04-06 08:00:00 9.6 16 Sudoeste 23 Sudoeste 0 -- -- 98
2020-04-06 07:00:00 9.6 18 Sur 28 Sur 0 -- -- 98
2020-04-06 06:00:00 9.5 16 Sur 22 Sur 0 -- -- 98
2020-04-06 05:00:00 9.5 9 Sur 19 Sur 0 -- -- 98
2020-04-06 04:00:00 9.4 8 Sudeste 19 Sudeste 0 -- -- 98
2020-04-06 03:00:00 9.5 11 Sudeste 14 Sudeste 0 -- -- 98
2020-04-06 02:00:00 9.7 8 Sudeste 13 Sudeste 0.1 -- -- 98
2020-04-06 01:00:00 9.5 8 Este 10 Este 0.2 -- -- 98
2020-04-06 00:00:00 9.6 4 Sur 10 Sudoeste 3.1 -- -- 98
2020-04-05 23:00:00 9.6 0 Calma 16 Noroeste 1 -- -- 98
2020-04-05 22:00:00 9.7 14 Noroeste 19 Noroeste 1.4 -- -- 98
2020-04-05 21:00:00 10.2 8 Noroeste 14 Noroeste 0.4 -- -- 97
2020-04-05 20:00:00 11.2 6 Oeste 11 Oeste 0.2 -- -- 93
2020-04-05 19:00:00 11.6 10 Oeste 22 Sudoeste 0.3 -- -- 91
2020-04-05 18:00:00 12.5 9 Sudoeste 27 Oeste 0 -- -- 85
2020-04-05 17:00:00 12.1 22 Oeste 33 Oeste 0 -- -- 86
2020-04-05 16:00:00 16.3 15 Sudoeste 30 Sudoeste 0 -- -- 54
2020-04-05 15:00:00 16.2 23 Sudoeste 38 Sudoeste 0 -- -- 51
2020-04-05 14:00:00 16 24 Sudoeste 35 Sudoeste 0 -- -- 52
2020-04-05 13:00:00 13.8 22 Sur 29 Sudoeste 0 -- -- 60
2020-04-05 12:00:00 12.5 15 Sudoeste 23 Sudoeste 0 -- -- 68
2020-04-05 11:00:00 11.6 17 Sudoeste 27 Sudoeste 0 -- -- 70
2020-04-05 10:00:00 10.2 16 Sur 24 Sur 0 -- -- 75
2020-04-05 09:00:00 7.8 12 Sur 19 Sur 0 -- -- 82
2020-04-05 08:00:00 6.8 12 Sur 20 Sur 0 -- -- 84
2020-04-05 07:00:00 7.8 13 Sur 21 Sur 0 -- -- 81
2020-04-05 06:00:00 7.8 12 Sur 19 Sur 0 -- -- 80
2020-04-05 05:00:00 7.7 14 Sur 17 Sur 0 -- -- 80
2020-04-05 04:00:00 7.8 12 Sur 16 Sur 0 -- -- 77
2020-04-05 03:00:00 7.6 14 Sur 18 Sur 0 -- -- 76
2020-04-05 02:00:00 7.6 15 Sur 19 Sur 0 -- -- 75
2020-04-05 01:00:00 6.6 15 Sur 19 Sur 0 -- -- 74
2020-04-05 00:00:00 8.4 11 Sur 22 Sur 0 -- -- 61
2020-04-04 23:00:00 10.7 11 Sur 18 Sur 0 -- -- 54
2020-04-04 22:00:00 9.7 14 Sur 26 Sur 0 -- -- 55
2020-04-04 21:00:00 11.9 21 Sur 36 Sudoeste 0 -- -- 44
2020-04-04 20:00:00 13.3 26 Sudoeste 39 Sur 0 -- -- 41
2020-04-04 19:00:00 16 26 Sudoeste 37 Sudoeste 0 -- -- 36
2020-04-04 18:00:00 17.5 10 Sur 19 Sur 0 -- -- 34
2020-04-04 17:00:00 17.5 8 Sur 23 Sur 0 -- -- 35
2020-04-04 16:00:00 16.3 10 Sur 22 Sur 0 -- -- 35
2020-04-04 15:00:00 15.5 8 Sudoeste 25 Noroeste 0 -- -- 34
2020-04-04 14:00:00 14.7 11 Sur 22 Sudeste 0 -- -- 39
2020-04-04 13:00:00 13.9 9 Sur 22 Sur 0 -- -- 44
2020-04-04 12:00:00 11.6 11 Sudeste 21 Este 0 -- -- 54
2020-04-04 11:00:00 8.6 12 Este 19 Este 0 -- -- 64
2020-04-04 10:00:00 5.9 14 Este 19 Este 0 -- -- 73
2020-04-04 09:00:00 2.9 13 Este 17 Este 0 -- -- 84
2020-04-04 08:00:00 0 15 Este 17 Este 0 -- -- 92
2020-04-04 07:00:00 0.1 13 Este 16 Este 0 -- -- 91
2020-04-04 06:00:00 0.6 13 Este 14 Este 0 -- -- 90
2020-04-04 05:00:00 1.7 11 Este 12 Este 0 -- -- 88
2020-04-04 04:00:00 1.2 10 Este 12 Este 0 -- -- 87
2020-04-04 03:00:00 3.1 9 Este 10 Este 0 -- -- 80
2020-04-04 02:00:00 4.3 7 Sudeste 10 Este 0 -- -- 80
2020-04-04 01:00:00 4.8 6 Este 8 Este 0 -- -- 74
2020-04-04 00:00:00 5.7 2 Norte 5 Norte 0 -- -- 73
2020-04-03 23:00:00 5 5 Norte 6 Norte 0 -- -- 74
2020-04-03 22:00:00 6.5 3 Norte 7 Norte 0 -- -- 71
2020-04-03 21:00:00 7 4 Norte 7 Norte 0 -- -- 77
2020-04-03 20:00:00 10.4 7 Norte 13 Norte 0 -- -- 60
2020-04-03 19:00:00 12.4 3 Este 13 Norte 0 -- -- 47
2020-04-03 18:00:00 12.8 3 Sudoeste 9 Sur 0 -- -- 47
2020-04-03 17:00:00 11.3 6 Nordeste 12 Nordeste 0 -- -- 50
2020-04-03 16:00:00 10.8 2 Sudoeste 15 Norte 0 -- -- 54
2020-04-03 15:00:00 9.3 6 Norte 23 Nordeste 0 -- -- 58
2020-04-03 14:00:00 8.5 9 Oeste 20 Noroeste 0 -- -- 59
2020-04-03 13:00:00 7.3 7 Norte 15 Nordeste 0 -- -- 60
2020-04-03 12:00:00 7.1 6 Nordeste 14 Este 0 -- -- 62
2020-04-03 11:00:00 4.6 8 Nordeste 19 Nordeste 0 -- -- 71
2020-04-03 10:00:00 3.2 14 Este 24 Este 0 -- -- 77
2020-04-03 09:00:00 1.4 17 Este 23 Este 0 -- -- 86
2020-04-03 08:00:00 -0.5 13 Este 16 Este 0 -- -- 92
2020-04-03 07:00:00 -1.2 11 Este 18 Este 0 -- -- 91
2020-04-03 06:00:00 -0.1 14 Este 23 Este 0 -- -- 89
2020-04-03 05:00:00 0.8 18 Este 23 Este 0 -- -- 87
2020-04-03 04:00:00 0.9 19 Este 27 Este 0 -- -- 87
2020-04-03 03:00:00 1.5 20 Este 28 Este 0 -- -- 87
2020-04-03 02:00:00 1.9 22 Este 31 Este 0 -- -- 85
2020-04-03 01:00:00 2.6 22 Este 30 Este 0 -- -- 83
2020-04-03 00:00:00 2.3 17 Este 24 Este 0 -- -- 84
2020-04-02 23:00:00 3.5 15 Este 33 Este 0 -- -- 76
2020-04-02 22:00:00 4.8 19 Este 31 Este 0 -- -- 71
2020-04-02 21:00:00 6.7 21 Este 31 Este 0 -- -- 61
2020-04-02 20:00:00 8 22 Este 32 Nordeste 0 -- -- 58
2020-04-02 19:00:00 10 22 Nordeste 33 Nordeste 0 -- -- 51
2020-04-02 18:00:00 10.1 25 Nordeste 37 Nordeste 0 -- -- 54
2020-04-02 17:00:00 9.5 27 Nordeste 38 Este 0 -- -- 62
2020-04-02 16:00:00 9.8 25 Nordeste 36 Nordeste 0 -- -- 64
2020-04-02 15:00:00 8.8 23 Nordeste 38 Nordeste 0 -- -- 68
2020-04-02 14:00:00 8.5 27 Nordeste 39 Nordeste 0 -- -- 72
2020-04-02 13:00:00 8.5 16 Este 26 Nordeste 0 -- -- 74
2020-04-02 12:00:00 8 21 Nordeste 31 Nordeste 0 -- -- 79
2020-04-02 11:00:00 7.1 18 Nordeste 27 Nordeste 0 -- -- 89
2020-04-02 10:00:00 6.4 13 Nordeste 20 Nordeste 0 -- -- 94
2020-04-02 09:00:00 5.4 6 Nordeste 14 Este 0.1 -- -- 97
2020-04-02 08:00:00 4.8 5 Nordeste 13 Nordeste 0 -- -- 98
2020-04-02 07:00:00 4.7 9 Nordeste 17 Nordeste 0.2 -- -- 98
2020-04-02 06:00:00 4.9 11 Nordeste 16 Nordeste 0.1 -- -- 99
2020-04-02 05:00:00 5.1 7 Nordeste 12 Nordeste 0 -- -- 99
2020-04-02 04:00:00 5.2 6 Nordeste 14 Nordeste 0 -- -- 99
2020-04-02 03:00:00 5.2 9 Nordeste 14 Nordeste 0 -- -- 99
2020-04-02 02:00:00 5.2 8 Nordeste 15 Nordeste 0 -- -- 99
2020-04-02 01:00:00 5.3 8 Nordeste 13 Nordeste 0.4 -- -- 99
2020-04-02 00:00:00 4.9 7 Norte 9 Norte 0 -- -- 99
2020-04-01 23:00:00 5 4 Este 9 Este 0 -- -- 99
2020-04-01 22:00:00 4.7 6 Este 13 Norte 0 -- -- 99
2020-04-01 21:00:00 4.8 11 Norte 17 Norte 0.1 -- -- 99
2020-04-01 20:00:00 5.1 8 Norte 18 Noroeste 0.5 -- -- 98
2020-04-01 19:00:00 5.8 4 Sudoeste 27 Sudoeste 1.9 -- -- 95
2020-04-01 18:00:00 5.8 23 Sudoeste 32 Sudoeste 2.4 -- -- 95
2020-04-01 17:00:00 7.5 14 Sudoeste 24 Nordeste 0 -- -- 74
2020-04-01 16:00:00 11.4 11 Nordeste 20 Nordeste 0 -- -- 60
2020-04-01 15:00:00 10.4 9 Nordeste 17 Nordeste 0 -- -- 62
2020-04-01 14:00:00 10.3 8 Nordeste 17 Este 0 -- -- 60
2020-04-01 13:00:00 10.2 8 Este 18 Este 0 -- -- 67
2020-04-01 12:00:00 9.4 10 Sudeste 19 Este 0 -- -- 70
2020-04-01 11:00:00 7.4 11 Sudeste 21 Sudeste 0 -- -- 83
2020-04-01 10:00:00 6.5 12 Sudeste 22 Sudeste 0 -- -- 91
2020-04-01 09:00:00 3.8 10 Sudeste 17 Sudeste 0 -- -- 98
2020-04-01 08:00:00 3.4 9 Este 16 Sudeste 0 -- -- 98
2020-04-01 07:00:00 3.6 13 Sudeste 18 Sudeste 0 -- -- 97
2020-04-01 06:00:00 3.9 15 Sudeste 20 Sudeste 0.1 -- -- 97
2020-04-01 05:00:00 4.3 13 Sudeste 26 Sudeste 0 -- -- 96
2020-04-01 04:00:00 4.6 17 Sudeste 24 Sudeste 0 -- -- 96
2020-04-01 03:00:00 4.7 15 Sudeste 27 Sudeste 0 -- -- 99
2020-04-01 02:00:00 4.4 11 Este 21 Este 1.4 -- -- 99
2020-04-01 01:00:00 4.5 14 Este 32 Este 0.9 -- -- 98
2020-04-01 00:00:00 4.7 23 Este 33 Este 0 -- -- 94
2020-03-31 23:00:00 4.7 21 Este 35 Este 0 -- -- 94
2020-03-31 22:00:00 4.4 23 Este 39 Este 0 -- -- 94
2020-03-31 21:00:00 4.9 27 Este 40 Este 0 -- -- 93
2020-03-31 20:00:00 5.4 28 Este 40 Este 0 -- -- 93
2020-03-31 19:00:00 5.6 21 Este 38 Este 0.5 -- -- 94
2020-03-31 18:00:00 6.7 25 Este 40 Este 0 -- -- 80
2020-03-31 17:00:00 7.1 27 Este 46 Este 0 -- -- 78
2020-03-31 16:00:00 5.4 30 Este 42 Este 0 -- -- 84
2020-03-31 15:00:00 5.4 26 Este 37 Sudeste 0 -- -- 81
2020-03-31 14:00:00 4.9 27 Este 42 Este 0 -- -- 84
2020-03-31 13:00:00 5.4 23 Este 40 Este 0 -- -- 74
2020-03-31 12:00:00 3.3 27 Este 97 Este 0 -- -- 76
2020-03-31 11:00:00 1.9 33 Este 47 Este 0 -- -- 76
2020-03-31 10:00:00 0.4 30 Este 44 Este 0 -- -- 80
2020-03-31 09:00:00 -0.8 28 Este 39 Este 0 -- -- 83
2020-03-31 08:00:00 -1.6 28 Este 41 Este 0 -- -- 84
2020-03-31 07:00:00 -1.7 26 Este 38 Este 0 -- -- 84
2020-03-31 06:00:00 -1.6 20 Nordeste 31 Este 0 -- -- 84
2020-03-31 05:00:00 -1.5 23 Este 37 Este 0 -- -- 84
2020-03-31 04:00:00 -1.9 23 Este 34 Este 0 -- -- 87
2020-03-31 03:00:00 -1.9 16 Nordeste 25 Nordeste 0 -- -- 86
2020-03-31 02:00:00 -1.4 14 Nordeste 27 Este 0 -- -- 83
2020-03-31 01:00:00 -1.6 17 Este 29 Nordeste 0 -- -- 81
2020-03-31 00:00:00 -1.2 19 Nordeste 39 Nordeste 0 -- -- 76
2020-03-30 23:00:00 -0.7 25 Nordeste 42 Nordeste 0 -- -- 73
2020-03-30 22:00:00 -0.6 28 Nordeste 41 Nordeste 0 -- -- 69
2020-03-30 21:00:00 -0.1 28 Nordeste 43 Nordeste 0 -- -- 64
2020-03-30 20:00:00 1.2 29 Nordeste 41 Nordeste 0 -- -- 58
2020-03-30 19:00:00 2.5 27 Nordeste 39 Nordeste 0 -- -- 53
2020-03-30 18:00:00 2.8 26 Nordeste 44 Nordeste 0 -- -- 50
2020-03-30 17:00:00 3.9 26 Nordeste 41 Nordeste 0 -- -- 54
2020-03-30 16:00:00 4.2 23 Nordeste 41 Nordeste 0 -- -- 50
2020-03-30 15:00:00 4.2 23 Nordeste 41 Este 0 -- -- 53
2020-03-30 14:00:00 3.8 25 Nordeste 42 Este 0 -- -- 56
2020-03-30 13:00:00 2.7 24 Nordeste 44 Nordeste 0 -- -- 56
2020-03-30 12:00:00 1.7 30 Nordeste 43 Nordeste 0 -- -- 68
2020-03-30 11:00:00 1 28 Nordeste 44 Este 0 -- -- 73
2020-03-30 10:00:00 0.6 23 Nordeste 36 Nordeste 0 -- -- 75
2020-03-30 09:00:00 -0.2 20 Nordeste 37 Nordeste 0 -- -- 81
2020-03-30 08:00:00 -0.2 29 Nordeste 40 Nordeste 0 -- -- 79
2020-03-30 07:00:00 0 27 Nordeste 42 Nordeste 0 -- -- 79
2020-03-30 06:00:00 0.4 30 Nordeste 53 Este 0 -- -- 84
2020-03-30 05:00:00 0.9 27 Nordeste 48 Nordeste 0 -- -- 84
2020-03-30 04:00:00 1.7 32 Nordeste 47 Nordeste 0 -- -- 85
2020-03-30 03:00:00 1.9 31 Nordeste 49 Este 0 -- -- 87
2020-03-30 02:00:00 2.5 31 Nordeste 45 Este 0 -- -- 84
2020-03-30 01:00:00 3.1 31 Nordeste 46 Nordeste 0 -- -- 86
2020-03-30 00:00:00 4.1 33 Nordeste 46 Este 0 -- -- 84
2020-03-29 23:00:00 4.8 29 Este 40 Este 0 -- -- 81
2020-03-29 22:00:00 4.7 25 Este 39 Nordeste 0 -- -- 82
2020-03-29 21:00:00 5.6 30 Nordeste 47 Nordeste 0 -- -- 77
2020-03-29 20:00:00 8.6 33 Nordeste 45 Nordeste 0 -- -- 56
2020-03-29 19:00:00 11.6 28 Nordeste 39 Nordeste 0 -- -- 44
2020-03-29 18:00:00 13.8 21 Nordeste 32 Nordeste 0 -- -- 38
2020-03-29 17:00:00 14.2 13 Nordeste 23 Nordeste 0 -- -- 39
2020-03-29 16:00:00 14.7 9 Nordeste 25 Nordeste 0 -- -- 41
2020-03-29 15:00:00 13.6 9 Nordeste 25 Norte 0 -- -- 42
2020-03-29 14:00:00 13.1 11 Este 22 Nordeste 0 -- -- 45
2020-03-29 13:00:00 12.6 12 Este 22 Este 0 -- -- 47
2020-03-29 12:00:00 9.9 13 Este 19 Este 0 -- -- 55
2020-03-29 11:00:00 7.3 12 Este 29 Este 0 -- -- 68
2020-03-29 10:00:00 5.6 10 Este 14 Este 0 -- -- 76
2020-03-29 09:00:00 1.8 6 Nordeste 14 Este 0 -- -- 96
2020-03-29 08:00:00 1.4 14 Este 16 Este 0 -- -- 94
2020-03-29 07:00:00 2.6 14 Este 19 Este 0 -- -- 91
2020-03-29 06:00:00 2.8 16 Este 19 Este 0 -- -- 91
2020-03-29 05:00:00 2.9 13 Este 16 Este 0 -- -- 90
2020-03-29 03:00:00 3.7 15 Este 18 Este 0 -- -- 87
2020-03-29 01:00:00 3 13 Este 16 Este 0 -- -- 87
2020-03-29 00:00:00 3.9 13 Este 19 Nordeste 0 -- -- 82
2020-03-28 23:00:00 5 15 Nordeste 21 Nordeste 0 -- -- 78
2020-03-28 22:00:00 6.1 12 Nordeste 14 Nordeste 0 -- -- 57
2020-03-28 21:00:00 7.4 9 Nordeste 11 Norte 0 -- -- 56
2020-03-28 20:00:00 9.2 8 Norte 10 Norte 0 -- -- 50
2020-03-28 19:00:00 11 5 Norte 9 Nordeste 0 -- -- 43
2020-03-28 18:00:00 14.2 4 Norte 14 Norte 0 -- -- 36
2020-03-28 17:00:00 13.9 6 Nordeste 17 Sudeste 0 -- -- 35
2020-03-28 16:00:00 14.5 7 Nordeste 16 Este 0 -- -- 34
2020-03-28 15:00:00 13.9 0 Calma 18 Este 0 -- -- 33
2020-03-28 14:00:00 13.3 5 Este 20 Este 0 -- -- 35
2020-03-28 13:00:00 12.4 9 Este 21 Sudeste 0 -- -- 39
2020-03-28 12:00:00 11.2 6 Este 15 Este 0 -- -- 42
2020-03-28 11:00:00 9.2 9 Este 15 Este 0 -- -- 54
2020-03-28 10:00:00 6.7 8 Este 12 Sudeste 0 -- -- 61
2020-03-28 09:00:00 4.1 9 Sudeste 12 Sudeste 0 -- -- 68
2020-03-28 08:00:00 0.3 9 Este 13 Este 0 -- -- 84
2020-03-28 07:00:00 -1.8 10 Este 12 Este 0 -- -- 86
2020-03-28 06:00:00 -2.3 9 Este 11 Este 0 -- -- 86
2020-03-28 05:00:00 -1.6 10 Este 12 Este 0 -- -- 80
2020-03-28 04:00:00 -0.6 3 Sudeste 6 Este 0 -- -- 83
2020-03-28 03:00:00 -1.2 4 Este 14 Este 0 -- -- 80
2020-03-28 02:00:00 0.4 13 Este 14 Este 0 -- -- 74
2020-03-28 01:00:00 0.5 13 Este 17 Este 0 -- -- 73
2020-03-28 00:00:00 1.8 13 Nordeste 15 Este 0 -- -- 68
2020-03-27 23:00:00 2.4 12 Este 19 Este 0 -- -- 64
2020-03-27 22:00:00 4.4 12 Este 21 Este 0 -- -- 59
2020-03-27 21:00:00 4.4 10 Este 18 Este 0 -- -- 57
2020-03-27 20:00:00 6.2 7 Este 12 Sudeste 0 -- -- 40
2020-03-27 19:00:00 9.4 10 Sudeste 26 Sudeste 0 -- -- 33
2020-03-27 18:00:00 11.3 13 Este 32 Sudeste 0 -- -- 30
2020-03-27 17:00:00 11.3 17 Este 32 Sudeste 0 -- -- 30
2020-03-27 16:00:00 11.5 16 Sudeste 42 Sudeste 0 -- -- 32
2020-03-27 15:00:00 11.2 18 Sudeste 42 Sudeste 0 -- -- 34
2020-03-27 14:00:00 9.9 21 Este 33 Este 0 -- -- 40
2020-03-27 13:00:00 8.8 20 Este 34 Este 0 -- -- 45
2020-03-27 12:00:00 6.6 22 Este 36 Este 0 -- -- 48
2020-03-27 11:00:00 4.7 20 Este 35 Este 0 -- -- 56
2020-03-27 10:00:00 3.4 21 Este 28 Este 0 -- -- 65
2020-03-27 09:00:00 0.7 14 Este 19 Este 0 -- -- 83
2020-03-27 08:00:00 -1.5 14 Este 20 Este 0 -- -- 91
2020-03-27 07:00:00 -3 17 Este 22 Este 0 -- -- 91
2020-03-27 06:00:00 -3.2 15 Este 24 Nordeste 0 -- -- 90
2020-03-27 05:00:00 -2.5 14 Nordeste 25 Este 0 -- -- 84
2020-03-27 04:00:00 -1.6 18 Nordeste 24 Este 0 -- -- 81
2020-03-27 03:00:00 -1 18 Este 24 Este 0 -- -- 77
2020-03-27 02:00:00 -0.4 16 Este 33 Este 0 -- -- 78
2020-03-27 01:00:00 0 21 Este 37 Este 0 -- -- 75
2020-03-27 00:00:00 1.4 23 Este 38 Este 0 -- -- 71
2020-03-26 23:00:00 2.5 23 Este 37 Nordeste 0 -- -- 70
2020-03-26 22:00:00 3.5 22 Este 37 Este 0 -- -- 71
2020-03-26 21:00:00 4 24 Este 32 Este 0 -- -- 67
2020-03-26 20:00:00 4.7 20 Este 35 Este 0 -- -- 58
2020-03-26 19:00:00 6.6 26 Este 36 Este 0 -- -- 51
2020-03-26 18:00:00 9.4 16 Este 27 Sudeste 0 -- -- 47
2020-03-26 17:00:00 10.7 12 Este 21 Este 0 -- -- 45
2020-03-26 16:00:00 9.6 8 Nordeste 24 Este 0 -- -- 44
2020-03-26 15:00:00 9.8 10 Nordeste 23 Este 0 -- -- 45
2020-03-26 14:00:00 9.7 2 Noroeste 21 Nordeste 0 -- -- 42
2020-03-26 13:00:00 8.3 11 Nordeste 23 Nordeste 0 -- -- 41
2020-03-26 12:00:00 7.3 10 Nordeste 23 Nordeste 0 -- -- 42
2020-03-26 11:00:00 5.8 10 Nordeste 21 Este 0 -- -- 60
2020-03-26 10:00:00 3.8 7 Nordeste 12 Norte 0 -- -- 64
2020-03-26 09:00:00 1.5 5 Noroeste 9 Noroeste 0 -- -- 74
2020-03-26 08:00:00 -2.1 4 Norte 7 Este 0 -- -- 81
2020-03-26 07:00:00 -3 4 Sudeste 15 Este 0 -- -- 81
2020-03-26 06:00:00 -1.5 13 Este 21 Este 0 -- -- 80
2020-03-26 05:00:00 -1 12 Este 23 Este 0 -- -- 84
2020-03-26 04:00:00 -0.1 14 Este 23 Este 0 -- -- 92
2020-03-26 03:00:00 -0.2 11 Este 20 Este 0 -- -- 91
2020-03-26 02:00:00 0.9 9 Este 19 Este 0 -- -- 81
2020-03-26 01:00:00 1.9 15 Este 20 Este 0 -- -- 64
2020-03-26 00:00:00 2.1 10 Este 17 Este 0 -- -- 61
2020-03-25 23:00:00 4.2 15 Este 19 Este 0 -- -- 53
2020-03-25 22:00:00 5.8 16 Este 20 Este 0 -- -- 45
2020-03-25 21:00:00 7.7 15 Este 22 Este 0 -- -- 41
2020-03-25 20:00:00 8.2 13 Este 21 Nordeste 0 -- -- 40
2020-03-25 19:00:00 13.2 6 Nordeste 11 Nordeste 0 -- -- 44
2020-03-25 18:00:00 14.8 6 Norte 13 Nordeste 0 -- -- 35
2020-03-25 17:00:00 15.5 5 Noroeste 13 Norte 0 -- -- 36
2020-03-25 16:00:00 14.6 8 Norte 21 Este 0 -- -- 34
2020-03-25 15:00:00 14.6 9 Nordeste 39 Sudeste 0 -- -- 34
2020-03-25 14:00:00 13.9 7 Nordeste 19 Noroeste 0 -- -- 47
2020-03-25 13:00:00 13 9 Noroeste 17 Oeste 0 -- -- 58
2020-03-25 12:00:00 11.8 6 Oeste 12 Noroeste 0 -- -- 60
2020-03-25 11:00:00 10.9 7 Noroeste 12 Oeste 0 -- -- 63
2020-03-25 10:00:00 10 5 Oeste 13 Sudoeste 0 -- -- 66
2020-03-25 09:00:00 6 6 Sudoeste 9 Oeste 0 -- -- 85
2020-03-25 08:00:00 2.6 0 Calma 8 Este 0 -- -- 86
2020-03-25 07:00:00 3.3 5 Este 8 Este 0 -- -- 84
2020-03-25 06:00:00 4.1 4 Sudeste 7 Sudeste 0 -- -- 79
2020-03-25 05:00:00 2.9 4 Este 27 Este 0 -- -- 88
2020-03-25 04:00:00 3.3 8 Este 12 Este 0 -- -- 86
2020-03-25 03:00:00 3.9 8 Este 9 Este 0 -- -- 83
2020-03-25 02:00:00 4.3 7 Este 8 Este 0 -- -- 78
2020-03-25 01:00:00 5 6 Este 11 Sudeste 0 -- -- 75
2020-03-25 00:00:00 6.3 6 Sudeste 10 Sudeste 0 -- -- 71
2020-03-24 23:00:00 6.7 5 Sudeste 14 Sudeste 0 -- -- 70
2020-03-24 22:00:00 7.6 10 Sudeste 15 Sudeste 0 -- -- 74
2020-03-24 21:00:00 7.3 10 Este 13 Este 0 -- -- 75
2020-03-24 20:00:00 8.7 10 Este 16 Este 0 -- -- 67
2020-03-24 19:00:00 11.7 14 Este 23 Este 0 -- -- 54
2020-03-24 18:00:00 13 8 Este 24 Este 0 -- -- 49
2020-03-24 17:00:00 14.9 20 Este 30 Este 0 -- -- 43
2020-03-24 16:00:00 14.6 15 Sudeste 31 Sudeste 0 -- -- 44
2020-03-24 15:00:00 15.2 17 Sudeste 33 Sudeste 0 -- -- 45
2020-03-24 14:00:00 14 22 Sudeste 34 Sudeste 0 -- -- 48
2020-03-24 13:00:00 13.5 18 Este 33 Sudeste 0 -- -- 51
2020-03-24 12:00:00 13.1 20 Este 33 Este 0 -- -- 57
2020-03-24 11:00:00 10.2 21 Este 33 Este 0 -- -- 65
2020-03-24 10:00:00 8.8 22 Este 33 Este 0 -- -- 77
2020-03-24 09:00:00 7.1 16 Este 23 Este 0 -- -- 88
2020-03-24 08:00:00 5.3 15 Este 28 Este 0 -- -- 94
2020-03-24 07:00:00 3.9 15 Este 20 Este 0 -- -- 97
2020-03-24 06:00:00 3.8 14 Este 21 Este 0 -- -- 95
2020-03-24 05:00:00 4.3 15 Este 21 Este 0 -- -- 94
2020-03-24 04:00:00 4.2 14 Este 21 Este 0 -- -- 94
2020-03-24 03:00:00 4.4 12 Este 25 Este 0 -- -- 93
2020-03-24 02:00:00 4.7 14 Este 22 Este 0 -- -- 92
2020-03-24 01:00:00 5.2 13 Este 21 Este 0 -- -- 90
2020-03-24 00:00:00 5.7 14 Este 19 Este 0 -- -- 90
2020-03-23 23:00:00 6.1 13 Este 20 Este 0 -- -- 88
2020-03-23 22:00:00 6.6 12 Este 20 Este 0 -- -- 84
2020-03-23 21:00:00 9.2 15 Este 27 Este 0 -- -- 67
2020-03-23 20:00:00 10.3 18 Sudeste 25 Sudeste 0 -- -- 61
2020-03-23 19:00:00 11.8 14 Este 27 Este 0 -- -- 53
2020-03-23 18:00:00 12.9 10 Sudeste 23 Este 0 -- -- 52
2020-03-23 17:00:00 12.2 16 Este 31 Este 0 -- -- 55
2020-03-23 16:00:00 12.7 18 Este 27 Este 0 -- -- 50
2020-03-23 15:00:00 12.9 15 Este 34 Este 0 -- -- 51
2020-03-23 14:00:00 12.8 17 Sudeste 33 Sudeste 0 -- -- 55
2020-03-23 13:00:00 11.5 20 Este 36 Este 0 -- -- 59
2020-03-23 12:00:00 11.6 20 Este 33 Este 0 -- -- 64
2020-03-23 11:00:00 9.6 21 Este 28 Este 0 -- -- 68
2020-03-23 10:00:00 8.2 18 Este 24 Este 0 -- -- 85
2020-03-23 09:00:00 5.7 17 Este 22 Este 0 -- -- 94
2020-03-23 08:00:00 3.6 12 Este 17 Este 0 -- -- 98
2020-03-23 07:00:00 2.2 10 Este 14 Este 0 -- -- 98
2020-03-23 06:00:00 2.9 12 Este 18 Este 0 -- -- 97
2020-03-23 05:00:00 2.6 11 Este 14 Este 0 -- -- 97
2020-03-23 04:00:00 2.7 9 Nordeste 16 Este 0 -- -- 97
2020-03-23 03:00:00 4.4 13 Este 18 Este 0 -- -- 95
2020-03-23 02:00:00 4.6 12 Nordeste 19 Este 0 -- -- 95
2020-03-23 01:00:00 4.4 9 Este 17 Este 0 -- -- 94
2020-03-23 00:00:00 4.4 11 Nordeste 17 Nordeste 0 -- -- 96
2020-03-22 23:00:00 5.4 10 Nordeste 18 Este 0 -- -- 91
2020-03-22 22:00:00 6.3 12 Nordeste 16 Nordeste 0 -- -- 87
2020-03-22 21:00:00 7.6 8 Nordeste 21 Nordeste 0 -- -- 77
2020-03-22 20:00:00 7.6 11 Nordeste 19 Este 0 -- -- 73
2020-03-22 19:00:00 10.5 15 Este 22 Sudeste 0 -- -- 59
2020-03-22 18:00:00 11.5 16 Sudeste 24 Sur 0 -- -- 64
2020-03-22 17:00:00 10.7 12 Sudeste 31 Sur 0 -- -- 67
2020-03-22 16:00:00 13.7 14 Sur 20 Sur 0 -- -- 62
2020-03-22 15:00:00 12.1 8 Nordeste 17 Este 0 -- -- 61
2020-03-22 14:00:00 14.2 3 Este 13 Nordeste 0 -- -- 58
2020-03-22 13:00:00 10.7 11 Nordeste 19 Nordeste 0 -- -- 71
2020-03-22 12:00:00 10.3 6 Nordeste 22 Nordeste 0 -- -- 77
2020-03-22 11:00:00 9.7 9 Nordeste 13 Nordeste 0 -- -- 88
2020-03-22 10:00:00 6.9 5 Nordeste 11 Nordeste 0 -- -- 96
2020-03-22 09:00:00 6.2 9 Este 12 Nordeste 0 -- -- 94
2020-03-22 08:00:00 5.4 4 Norte 8 Noroeste 0 -- -- 93
2020-03-22 07:00:00 5.4 0 Calma 3 Noroeste 0 -- -- 93
2020-03-22 06:00:00 5.2 0 Calma 8 Noroeste 0 -- -- 94
2020-03-22 05:00:00 5.5 5 Noroeste 9 Noroeste 0 -- -- 94
2020-03-22 04:00:00 5.3 8 Noroeste 11 Noroeste 0 -- -- 94
2020-03-22 03:00:00 5.5 6 Noroeste 10 Sudoeste 0 -- -- 94
2020-03-22 02:00:00 5.7 8 Sudoeste 16 Sudoeste 0 -- -- 94
2020-03-22 01:00:00 6 10 Sudoeste 20 Sur 0 -- -- 94
2020-03-22 00:00:00 6.3 16 Sudoeste 20 Sudoeste 0 -- -- 98
2020-03-21 23:00:00 6.6 8 Sudoeste 15 Sudoeste 0 -- -- 98
2020-03-21 22:00:00 7 11 Sudoeste 14 Sudoeste 0 -- -- 97
2020-03-21 21:00:00 8.1 0 Calma 19 Sudoeste 1.1 -- -- 85
2020-03-21 20:00:00 8.1 15 Sudoeste 21 Sudoeste 0.6 -- -- 91
2020-03-21 19:00:00 10 13 Oeste 22 Oeste 0 -- -- 74
2020-03-21 18:00:00 11.2 14 Oeste 21 Oeste 0 -- -- 69
2020-03-21 17:00:00 12.4 14 Oeste 23 Oeste 0 -- -- 65
2020-03-21 16:00:00 12.6 16 Oeste 25 Oeste 0 -- -- 65
2020-03-21 15:00:00 12.6 10 Sudoeste 12 Oeste 0 -- -- 58
2020-03-21 14:00:00 12.7 4 Sudeste 18 Sudeste 0 -- -- 58
2020-03-21 13:00:00 12.2 13 Este 27 Sudeste 0 -- -- 60
2020-03-21 12:00:00 11.9 14 Este 30 Sudeste 0 -- -- 64
2020-03-21 11:00:00 10 17 Este 27 Este 0 -- -- 78
2020-03-21 10:00:00 8.5 17 Este 24 Este 0 -- -- 84
2020-03-21 09:00:00 6.9 13 Este 18 Este 0 -- -- 93
2020-03-21 08:00:00 4.3 10 Este 13 Este 0 -- -- 97
2020-03-21 07:00:00 4 9 Este 15 Sudeste 0 -- -- 97
2020-03-21 06:00:00 4.8 12 Sudeste 17 Este 0 -- -- 97
2020-03-21 05:00:00 4.6 12 Este 17 Este 0 -- -- 96
2020-03-21 04:00:00 4.8 14 Sudeste 19 Sudeste 0 -- -- 94
2020-03-21 03:00:00 4.4 11 Este 19 Sudeste 0 -- -- 94
2020-03-21 02:00:00 5.5 14 Sudeste 19 Sudeste 0 -- -- 94
2020-03-21 01:00:00 5.5 12 Este 15 Sudeste 0 -- -- 98
2020-03-21 00:00:00 6.6 10 Este 14 Este 0 -- -- 98
2020-03-20 23:00:00 6.6 7 Este 12 Este 0 -- -- 96
2020-03-20 22:00:00 8 8 Sur 13 Sudoeste 0 -- -- 96
2020-03-20 21:00:00 8.4 10 Sudoeste 14 Sudoeste 0 -- -- 97
2020-03-20 20:00:00 9 9 Sudoeste 13 Sur 0 -- -- 95
2020-03-20 19:00:00 10 9 Sudoeste 26 Sudoeste 0.8 -- -- 88
2020-03-20 18:00:00 10.4 22 Sudoeste 28 Sudoeste 0.2 -- -- 81
2020-03-20 17:00:00 15 13 Sur 20 Sur 0 -- -- 55
2020-03-20 16:00:00 14.5 10 Sur 21 Sur 0 -- -- 56
2020-03-20 15:00:00 14 11 Sur 21 Sur 0 -- -- 56
2020-03-20 14:00:00 13 9 Sudeste 19 Sudeste 0 -- -- 60
2020-03-20 13:00:00 12.2 9 Este 15 Sudeste 0 -- -- 68
2020-03-20 12:00:00 11.4 10 Este 18 Sudeste 0 -- -- 73
2020-03-20 11:00:00 9.1 12 Este 17 Este 0 -- -- 84
2020-03-20 10:00:00 7.8 12 Este 17 Este 0 -- -- 89
2020-03-20 09:00:00 6.5 13 Este 17 Este 0 -- -- 93
2020-03-20 08:00:00 6 14 Sudeste 17 Sudeste 0 -- -- 93
2020-03-20 07:00:00 5.7 8 Sudeste 16 Sudeste 0 -- -- 91
2020-03-20 06:00:00 6.1 12 Sudeste 19 Sudeste 0 -- -- 89
2020-03-20 05:00:00 6 14 Sudeste 19 Sudeste 0 -- -- 90
2020-03-20 04:00:00 5.4 10 Sudeste 16 Sudeste 0 -- -- 90
2020-03-20 03:00:00 6.3 7 Sudeste 17 Sudeste 0 -- -- 86
2020-03-20 02:00:00 7 12 Sudeste 20 Sudeste 0 -- -- 80
2020-03-20 01:00:00 7.9 8 Sudeste 18 Sudeste 0 -- -- 72
2020-03-20 00:00:00 8 6 Sudeste 18 Sudeste 0 -- -- 64
2020-03-19 23:00:00 8 13 Este 19 Este 0 -- -- 60
2020-03-19 22:00:00 8.5 13 Este 15 Sudeste 0 -- -- 54
2020-03-19 21:00:00 8.4 10 Este 12 Este 0 -- -- 57
2020-03-19 20:00:00 11.2 4 Sudeste 14 Sudeste 0 -- -- 49
2020-03-19 19:00:00 11.9 11 Sudeste 14 Sudeste 0 -- -- 51
2020-03-19 18:00:00 13.1 8 Sudeste 17 Sudeste 0 -- -- 51
2020-03-19 17:00:00 14.5 10 Sudeste 22 Sudeste 0 -- -- 45
2020-03-19 16:00:00 16.1 14 Sudeste 26 Este 0 -- -- 34
2020-03-19 15:00:00 15.6 15 Sudeste 27 Sudeste 0 -- -- 38
2020-03-19 14:00:00 15.6 11 Este 22 Sudeste 0 -- -- 42
2020-03-19 13:00:00 14 10 Sudeste 22 Este 0 -- -- 51
2020-03-19 12:00:00 12.8 10 Este 17 Este 0 -- -- 64
2020-03-19 11:00:00 9.6 8 Este 13 Este 0 -- -- 80
2020-03-19 10:00:00 8.3 9 Este 13 Este 0 -- -- 87
2020-03-19 09:00:00 8.2 6 Sudeste 10 Sudeste 0 -- -- 91
2020-03-19 08:00:00 6.4 3 Sudeste 21 Sudeste 0 -- -- 94
2020-03-19 07:00:00 6.6 17 Sudeste 24 Sudeste 0 -- -- 94
2020-03-19 06:00:00 7 19 Sudeste 24 Sudeste 0 -- -- 92
2020-03-19 05:00:00 7.2 18 Este 24 Sudeste 0 -- -- 91
2020-03-19 04:00:00 7.7 19 Sudeste 23 Sudeste 0 -- -- 90
2020-03-19 03:00:00 8.2 18 Este 25 Este 0 -- -- 86
2020-03-19 02:00:00 8.7 18 Este 24 Sudeste 0 -- -- 83
2020-03-19 01:00:00 8.6 17 Este 20 Sudeste 0 -- -- 83
2020-03-19 00:00:00 8.3 12 Este 14 Este 0 -- -- 81
2020-03-18 23:00:00 10 10 Este 17 Sudeste 0 -- -- 76
2020-03-18 22:00:00 10.3 13 Este 17 Sudeste 0 -- -- 78
2020-03-18 21:00:00 10.7 7 Este 14 Nordeste 0 -- -- 81
2020-03-18 20:00:00 12.4 8 Nordeste 9 Nordeste 0 -- -- 76
2020-03-18 19:00:00 13.1 7 Norte 9 Norte 0 -- -- 81
2020-03-18 18:00:00 15 7 Noroeste 9 Norte 0 -- -- 72
2020-03-18 17:00:00 17.2 3 Norte 8 Este 0 -- -- 49
2020-03-18 16:00:00 17.3 4 Este 12 Nordeste 0 -- -- 49
2020-03-18 15:00:00 16.9 5 Este 14 Nordeste 0 -- -- 51
2020-03-18 14:00:00 15.4 8 Este 14 Sudeste 0 -- -- 57
2020-03-18 13:00:00 12.8 9 Este 18 Este 0 -- -- 65
2020-03-18 12:00:00 10.5 13 Este 19 Este 0 -- -- 74
2020-03-18 11:00:00 8 12 Este 17 Este 0 -- -- 91
2020-03-18 10:00:00 5.7 11 Este 17 Este 0 -- -- 99
2020-03-18 09:00:00 4.8 11 Nordeste 15 Este 0 -- -- 99
2020-03-18 08:00:00 3.9 6 Nordeste 13 Este 0 -- -- 99
2020-03-18 07:00:00 4.3 7 Nordeste 14 Este 0 -- -- 98
2020-03-18 06:00:00 5 12 Este 18 Este 0 -- -- 97
2020-03-18 05:00:00 4.9 7 Este 20 Sudeste 0 -- -- 96
2020-03-18 04:00:00 5.9 15 Este 23 Sudeste 0 -- -- 94
2020-03-18 03:00:00 6.7 18 Este 23 Este 0 -- -- 93
2020-03-18 02:00:00 7.2 21 Este 28 Este 0 -- -- 92
2020-03-18 01:00:00 7.9 25 Este 31 Sudeste 0 -- -- 92
2020-03-18 00:00:00 7.6 18 Este 23 Sudeste 0 -- -- 93
2020-03-17 23:00:00 7.3 13 Este 22 Este 0 -- -- 93
2020-03-17 22:00:00 8.8 17 Este 27 Este 0 -- -- 89
2020-03-17 21:00:00 8.3 18 Este 23 Este 0 -- -- 93
2020-03-17 20:00:00 7.9 11 Nordeste 24 Este 0 -- -- 91
2020-03-17 19:00:00 10.1 17 Este 28 Nordeste 0 -- -- 80
2020-03-17 18:00:00 11.2 22 Nordeste 32 Este 0 -- -- 75
2020-03-17 17:00:00 11.9 21 Este 30 Este 0 -- -- 74
2020-03-17 16:00:00 12.4 19 Este 30 Nordeste 0 -- -- 71
2020-03-17 15:00:00 11.4 21 Este 35 Este 0 -- -- 72
2020-03-17 14:00:00 9.9 23 Este 34 Este 0 -- -- 75
2020-03-17 13:00:00 9.4 23 Este 45 Este 0 -- -- 78
2020-03-17 12:00:00 9.1 30 Este 42 Este 0 -- -- 78
2020-03-17 11:00:00 7.1 30 Este 40 Este 0 -- -- 87
2020-03-17 10:00:00 6.5 23 Este 33 Este 0 -- -- 89
2020-03-17 09:00:00 5.4 22 Este 35 Nordeste 0 -- -- 94
2020-03-17 08:00:00 4.3 22 Este 35 Este 0 -- -- 95
2020-03-17 07:00:00 4.3 24 Este 42 Nordeste 0 -- -- 91
2020-03-17 06:00:00 4.2 23 Este 42 Este 0 -- -- 91
2020-03-17 05:00:00 4 24 Este 40 Este 0 -- -- 91
2020-03-17 04:00:00 3.9 27 Este 44 Este 0 -- -- 89
2020-03-17 03:00:00 4.1 28 Este 47 Este 0 -- -- 88
2020-03-17 02:00:00 3.9 36 Nordeste 58 Nordeste 0 -- -- 87
2020-03-17 01:00:00 4 44 Nordeste 59 Nordeste 0 -- -- 86
2020-03-17 00:00:00 4.2 38 Nordeste 66 Este 0 -- -- 86
2020-03-16 23:00:00 4.1 38 Nordeste 64 Nordeste 0 -- -- 85
2020-03-16 22:00:00 4 35 Nordeste 62 Nordeste 0 -- -- 84
2020-03-16 21:00:00 3.7 34 Nordeste 63 Nordeste 0 -- -- 81
2020-03-16 20:00:00 3.9 40 Nordeste 61 Nordeste 0 -- -- 78
2020-03-16 19:00:00 4.3 33 Nordeste 59 Nordeste 0 -- -- 75
2020-03-16 18:00:00 4.5 42 Nordeste 66 Nordeste 0 -- -- 74
2020-03-16 17:00:00 4.9 41 Nordeste 60 Este 0 -- -- 71
2020-03-16 16:00:00 5.1 38 Nordeste 68 Nordeste 0 -- -- 70
2020-03-16 15:00:00 6.3 40 Nordeste 60 Nordeste 0 -- -- 67
2020-03-16 14:00:00 5.9 39 Nordeste 62 Nordeste 0 -- -- 71
2020-03-16 13:00:00 4.7 39 Nordeste 60 Nordeste 0.1 -- -- 72
2020-03-16 12:00:00 3.4 30 Nordeste 45 Nordeste 0 -- -- 81
2020-03-16 11:00:00 2.6 24 Nordeste 41 Nordeste 0.6 -- -- 86
2020-03-16 10:00:00 1 17 Nordeste 30 Nordeste 1.4 -- -- 97
2020-03-16 09:00:00 0.7 16 Nordeste 39 Nordeste 0.9 -- -- 96
2020-03-16 08:00:00 1.2 15 Nordeste 28 Nordeste 0 -- -- 94
2020-03-16 07:00:00 0.4 12 Nordeste 28 Nordeste 0 -- -- 98
2020-03-16 06:00:00 -0.2 15 Nordeste 28 Nordeste 0.1 -- -- 99
2020-03-16 05:00:00 0 22 Nordeste 35 Nordeste 0 -- -- 99
2020-03-16 04:00:00 -0.6 18 Norte 25 Nordeste 0.3 -- -- 99
2020-03-16 03:00:00 -0.6 12 Norte 33 Nordeste 1 -- -- 99
2020-03-16 02:00:00 0.3 24 Nordeste 33 Nordeste 1.8 -- -- 98
2020-03-16 01:00:00 2.1 9 Oeste 27 Oeste 0 -- -- 94
2020-03-16 00:00:00 2.1 19 Oeste 31 Noroeste 0 -- -- 89
2020-03-15 23:00:00 3.9 22 Oeste 36 Oeste 0 -- -- 76
2020-03-15 22:00:00 3.4 15 Noroeste 38 Oeste 0 -- -- 84
2020-03-15 21:00:00 7.5 22 Oeste 38 Oeste 0 -- -- 67
2020-03-15 20:00:00 8.6 16 Oeste 22 Oeste 0 -- -- 65
2020-03-15 19:00:00 11.7 17 Oeste 41 Oeste 0 -- -- 54
2020-03-15 18:00:00 14.1 30 Oeste 48 Oeste 0 -- -- 48
2020-03-15 17:00:00 15.2 34 Oeste 46 Oeste 0 -- -- 45
2020-03-15 16:00:00 15.1 28 Oeste 43 Oeste 0 -- -- 48
2020-03-15 15:00:00 17.8 24 Oeste 40 Oeste 0 -- -- 39
2020-03-15 14:00:00 17.3 23 Oeste 37 Oeste 0 -- -- 37
2020-03-15 13:00:00 15.4 14 Sudoeste 23 Sudoeste 0 -- -- 40
2020-03-15 12:00:00 14.2 13 Sudoeste 21 Sudoeste 0 -- -- 43
2020-03-15 11:00:00 12.3 13 Sudoeste 18 Sur 0 -- -- 51
2020-03-15 10:00:00 9.9 10 Sur 15 Sur 0 -- -- 59
2020-03-15 09:00:00 6.6 7 Sudeste 11 Sudeste 0 -- -- 68
2020-03-15 08:00:00 2.2 8 Sudeste 15 Sur 0 -- -- 72
2020-03-15 07:00:00 2.8 12 Sur 18 Sur 0 -- -- 69
2020-03-15 06:00:00 3.4 8 Sur 16 Sur 0 -- -- 63
2020-03-15 05:00:00 4.4 8 Sudeste 11 Sudeste 0 -- -- 56
2020-03-15 04:00:00 5.5 5 Sudeste 10 Sudeste 0 -- -- 54
2020-03-15 03:00:00 6.1 6 Sudeste 10 Sudeste 0 -- -- 54
2020-03-15 02:00:00 6.4 5 Sudeste 9 Sudeste 0 -- -- 50
2020-03-15 01:00:00 7.3 7 Sudeste 9 Sudeste 0 -- -- 47
2020-03-15 00:00:00 7.9 6 Este 9 Este 0 -- -- 50
2020-03-14 23:00:00 8.1 6 Este 9 Nordeste 0 -- -- 49
2020-03-14 22:00:00 8.6 8 Nordeste 11 Nordeste 0 -- -- 48
2020-03-14 21:00:00 9 9 Nordeste 10 Nordeste 0 -- -- 46
2020-03-14 20:00:00 11 4 Norte 6 Norte 0 -- -- 41
2020-03-14 19:00:00 12.8 5 Norte 8 Noroeste 0 -- -- 46
2020-03-14 18:00:00 15.1 6 Norte 11 Norte 0 -- -- 33
2020-03-14 17:00:00 15.9 6 Nordeste 10 Nordeste 0 -- -- 30
2020-03-14 16:00:00 16.8 0 Calma 12 Este 0 -- -- 29
2020-03-14 15:00:00 15.5 3 Sudeste 13 Este 0 -- -- 33
2020-03-14 14:00:00 14.2 5 Sudeste 14 Sudeste 0 -- -- 36
2020-03-14 13:00:00 12.9 4 Este 10 Sudeste 0 -- -- 41
2020-03-14 12:00:00 10.4 5 Este 10 Nordeste 0 -- -- 56
2020-03-14 11:00:00 7.2 6 Este 15 Nordeste 0 -- -- 71
2020-03-14 10:00:00 4.8 13 Nordeste 18 Nordeste 0 -- -- 81
2020-03-14 09:00:00 2.5 8 Nordeste 16 Nordeste 0 -- -- 91
2020-03-14 08:00:00 -1.4 14 Nordeste 16 Nordeste 0 -- -- 97
2020-03-14 07:00:00 -1.1 9 Este 15 Nordeste 0 -- -- 97
2020-03-14 06:00:00 -1 13 Nordeste 16 Nordeste 0 -- -- 97
2020-03-14 05:00:00 -0.9 13 Nordeste 15 Nordeste 0 -- -- 96
2020-03-14 04:00:00 -0.7 9 Nordeste 18 Este 0 -- -- 94
2020-03-14 03:00:00 1.5 15 Nordeste 22 Nordeste 0 -- -- 90
2020-03-14 02:00:00 1.7 10 Este 21 Este 0 -- -- 90
2020-03-14 01:00:00 3.2 20 Este 26 Este 0 -- -- 87
2020-03-14 00:00:00 2.9 15 Este 29 Este 0 -- -- 88
2020-03-13 23:00:00 4.1 18 Este 25 Este 0 -- -- 86
2020-03-13 22:00:00 3.8 10 Nordeste 21 Este 0 -- -- 89
2020-03-13 21:00:00 4.3 16 Nordeste 19 Este 0 -- -- 88
2020-03-13 20:00:00 5.5 10 Nordeste 27 Este 0 -- -- 82
2020-03-13 19:00:00 7.1 24 Nordeste 32 Nordeste 0 -- -- 75
2020-03-13 18:00:00 9.4 23 Nordeste 34 Nordeste 0 -- -- 68
2020-03-13 17:00:00 10.5 27 Nordeste 36 Nordeste 0 -- -- 67
2020-03-13 16:00:00 11.8 21 Nordeste 31 Nordeste 0 -- -- 66
2020-03-13 15:00:00 11.2 23 Nordeste 33 Nordeste 0 -- -- 68
2020-03-13 14:00:00 11.7 22 Nordeste 36 Este 0 -- -- 66
2020-03-13 13:00:00 11.9 24 Nordeste 35 Este 0 -- -- 67
2020-03-13 12:00:00 9.7 25 Nordeste 37 Nordeste 0 -- -- 75
2020-03-13 11:00:00 7.6 28 Nordeste 39 Este 0 -- -- 82
2020-03-13 10:00:00 6.7 28 Este 43 Nordeste 0 -- -- 87
2020-03-13 09:00:00 5.7 32 Nordeste 46 Nordeste 0 -- -- 90
2020-03-13 08:00:00 5.5 35 Nordeste 48 Nordeste 0 -- -- 90
2020-03-13 07:00:00 5.7 36 Nordeste 50 Nordeste 0 -- -- 91
2020-03-13 06:00:00 5.9 32 Nordeste 49 Este 0 -- -- 91
2020-03-13 05:00:00 5.9 32 Nordeste 44 Nordeste 0 -- -- 91
2020-03-13 04:00:00 6.1 31 Nordeste 45 Nordeste 0 -- -- 91
2020-03-13 03:00:00 6.1 30 Nordeste 42 Este 0 -- -- 90
2020-03-13 02:00:00 6.4 29 Este 38 Este 0 -- -- 91
2020-03-13 01:00:00 6.6 27 Este 41 Este 0 -- -- 91
2020-03-13 00:00:00 6.9 31 Este 41 Este 0 -- -- 93
2020-03-12 23:00:00 7.3 30 Nordeste 44 Este 0 -- -- 93
2020-03-12 22:00:00 7.5 31 Este 45 Nordeste 0 -- -- 92
2020-03-12 21:00:00 8.4 31 Nordeste 42 Este 0 -- -- 91
2020-03-12 20:00:00 8.7 27 Este 40 Este 0 -- -- 90
2020-03-12 19:00:00 10.4 28 Este 37 Este 0 -- -- 81
2020-03-12 18:00:00 12.6 21 Nordeste 30 Este 0 -- -- 74
2020-03-12 17:00:00 14.5 15 Nordeste 25 Nordeste 0 -- -- 72
2020-03-12 16:00:00 14.3 20 Nordeste 24 Nordeste 0 -- -- 73
2020-03-12 15:00:00 16.2 18 Nordeste 24 Nordeste 0 -- -- 69
2020-03-12 14:00:00 17.4 10 Nordeste 14 Nordeste 0 -- -- 64
2020-03-12 13:00:00 16.5 10 Nordeste 15 Nordeste 0 -- -- 66
2020-03-12 12:00:00 15.8 8 Este 13 Nordeste 0 -- -- 65
2020-03-12 11:00:00 16.2 6 Nordeste 10 Nordeste 0 -- -- 62
2020-03-12 10:00:00 13.9 6 Este 14 Sudeste 0 -- -- 69
2020-03-12 09:00:00 10.9 9 Este 12 Sudeste 0 -- -- 78
2020-03-12 08:00:00 9.7 8 Sudeste 11 Sudeste 0 -- -- 76
2020-03-12 07:00:00 9.9 6 Este 9 Sur 0 -- -- 74
2020-03-12 06:00:00 11 6 Sudoeste 10 Sur 0 -- -- 73
2020-03-12 05:00:00 12.2 8 Sur 10 Sur 0 -- -- 67
2020-03-12 04:00:00 11.6 10 Sudoeste 12 Sudoeste 0 -- -- 68
2020-03-12 03:00:00 11.6 11 Sudoeste 12 Sudoeste 0 -- -- 68
2020-03-12 02:00:00 12 13 Sudoeste 18 Sudoeste 0 -- -- 65
2020-03-12 01:00:00 10.1 16 Sudoeste 17 Sudoeste 0 -- -- 69
2020-03-12 00:00:00 11.3 14 Sudoeste 16 Sudoeste 0 -- -- 66
2020-03-11 23:00:00 10.6 14 Sudoeste 18 Sudoeste 0 -- -- 73
2020-03-11 22:00:00 10 17 Sudoeste 18 Sudoeste 0 -- -- 75
2020-03-11 21:00:00 12.8 13 Sudoeste 16 Sudoeste 0 -- -- 65
2020-03-11 20:00:00 13 13 Sudoeste 17 Sudoeste 0 -- -- 61
2020-03-11 19:00:00 15.5 17 Sudoeste 26 Oeste 0 -- -- 48
2020-03-11 18:00:00 20.6 17 Oeste 26 Oeste 0 -- -- 36
2020-03-11 17:00:00 21.1 17 Oeste 25 Oeste 0 -- -- 33
2020-03-11 16:00:00 21.3 16 Oeste 24 Oeste 0 -- -- 31
2020-03-11 15:00:00 21 13 Oeste 26 Oeste 0 -- -- 31
2020-03-11 14:00:00 19.2 9 Oeste 15 Oeste 0 -- -- 45
2020-03-11 13:00:00 17.9 8 Sudoeste 18 Sudoeste 0 -- -- 46
2020-03-11 12:00:00 16.5 10 Sur 17 Sudoeste 0 -- -- 48
2020-03-11 11:00:00 14.7 8 Sudoeste 12 Sur 0 -- -- 50
2020-03-11 10:00:00 12.1 9 Sudoeste 11 Sudoeste 0 -- -- 65
2020-03-11 09:00:00 7.9 9 Sudoeste 12 Sudoeste 0 -- -- 87
2020-03-11 08:00:00 4.6 11 Sudoeste 14 Sudoeste 0 -- -- 94
2020-03-11 07:00:00 3.4 13 Sudoeste 15 Sudoeste 0 -- -- 91
2020-03-11 06:00:00 4 12 Sudoeste 13 Sudoeste 0 -- -- 65
2020-03-11 05:00:00 4.6 12 Sudoeste 13 Sudoeste 0 -- -- 60
2020-03-11 04:00:00 5.1 9 Sudoeste 16 Sudoeste 0 -- -- 60
2020-03-11 03:00:00 5.4 13 Sudoeste 15 Oeste 0 -- -- 58
2020-03-11 02:00:00 8.7 15 Oeste 28 Oeste 0 -- -- 51
2020-03-11 01:00:00 8.9 19 Oeste 24 Oeste 0 -- -- 53
2020-03-11 00:00:00 6.1 14 Sudoeste 22 Sudoeste 0 -- -- 67
2020-03-10 23:00:00 7.2 18 Sudoeste 19 Sudoeste 0 -- -- 72
2020-03-10 22:00:00 8.7 15 Sudoeste 18 Sudoeste 0 -- -- 70
2020-03-10 21:00:00 9.4 12 Sudoeste 17 Oeste 0 -- -- 68
2020-03-10 20:00:00 11.3 16 Oeste 18 Oeste 0 -- -- 58
2020-03-10 19:00:00 16.1 10 Oeste 13 Oeste 0 -- -- 50
2020-03-10 18:00:00 18.1 11 Oeste 22 Oeste 0 -- -- 45
2020-03-10 17:00:00 18.4 18 Oeste 25 Oeste 0 -- -- 44
2020-03-10 16:00:00 17.8 17 Oeste 22 Noroeste 0 -- -- 42
2020-03-10 15:00:00 18 14 Oeste 23 Oeste 0 -- -- 42
2020-03-10 14:00:00 17.2 14 Sudoeste 28 Oeste 0 -- -- 44
2020-03-10 13:00:00 14.9 8 Oeste 19 Oeste 0 -- -- 52
2020-03-10 12:00:00 12.2 13 Sudoeste 21 Sudoeste 0 -- -- 56
2020-03-10 11:00:00 11 12 Sudoeste 19 Sudoeste 0 -- -- 61
2020-03-10 10:00:00 7.3 17 Sudoeste 21 Sudoeste 0 -- -- 76
2020-03-10 09:00:00 4.5 13 Sudoeste 17 Sudoeste 0 -- -- 92
2020-03-10 08:00:00 2.1 11 Sudoeste 13 Sudoeste 0 -- -- 93
2020-03-10 07:00:00 1.9 8 Oeste 10 Sudoeste 0 -- -- 94
2020-03-10 06:00:00 1.8 8 Sudoeste 13 Sudoeste 0 -- -- 94
2020-03-10 05:00:00 2.1 11 Sudoeste 14 Sudoeste 0 -- -- 94
2020-03-10 04:00:00 2 11 Sudoeste 13 Sudoeste 0 -- -- 93
2020-03-10 03:00:00 2.4 12 Sudoeste 13 Oeste 0 -- -- 89
2020-03-10 02:00:00 4.6 11 Oeste 14 Oeste 0 -- -- 81
2020-03-10 01:00:00 4.8 9 Oeste 11 Oeste 0 -- -- 75
2020-03-10 00:00:00 6.5 5 Sudoeste 9 Sudoeste 0 -- -- 67
2020-03-09 23:00:00 5.9 6 Este 15 Oeste 0 -- -- 70
2020-03-09 22:00:00 6.7 13 Oeste 15 Oeste 0 -- -- 68
2020-03-09 21:00:00 5.9 8 Sudoeste 14 Sudoeste 0 -- -- 69
2020-03-09 20:00:00 6.4 12 Sudoeste 14 Oeste 0 -- -- 64
2020-03-09 19:00:00 10.9 8 Noroeste 13 Oeste 0 -- -- 47
2020-03-09 18:00:00 12.8 11 Noroeste 22 Noroeste 0 -- -- 38
2020-03-09 17:00:00 12.7 16 Noroeste 27 Noroeste 0 -- -- 37
2020-03-09 16:00:00 12.8 15 Noroeste 26 Noroeste 0 -- -- 37
2020-03-09 15:00:00 11.7 14 Noroeste 26 Noroeste 0 -- -- 41
2020-03-09 14:00:00 11.5 14 Noroeste 24 Norte 0 -- -- 46
2020-03-09 13:00:00 9.8 11 Noroeste 20 Noroeste 0 -- -- 59
2020-03-09 12:00:00 8 11 Oeste 18 Noroeste 0 -- -- 67
2020-03-09 11:00:00 6.1 11 Oeste 19 Noroeste 0 -- -- 76
2020-03-09 10:00:00 4.4 10 Noroeste 20 Oeste 0 -- -- 82
2020-03-09 09:00:00 2.5 11 Oeste 18 Oeste 0 -- -- 91
2020-03-09 08:00:00 0.7 13 Oeste 18 Noroeste 0 -- -- 93
2020-03-09 07:00:00 0.4 15 Oeste 18 Oeste 0 -- -- 91
2020-03-09 06:00:00 1.3 15 Oeste 23 Noroeste 0 -- -- 89
2020-03-09 05:00:00 2 18 Oeste 24 Noroeste 0 -- -- 87
2020-03-09 04:00:00 2.9 19 Oeste 33 Oeste 0 -- -- 82
2020-03-09 03:00:00 2.7 18 Oeste 32 Oeste 0 -- -- 84
2020-03-09 02:00:00 4 23 Noroeste 49 Noroeste 0 -- -- 78
2020-03-09 01:00:00 5.7 26 Noroeste 40 Noroeste 0 -- -- 75
2020-03-09 00:00:00 5.4 24 Oeste 32 Oeste 0 -- -- 91
2020-03-08 23:00:00 6.3 23 Oeste 43 Oeste 0 -- -- 92
2020-03-08 22:00:00 6.9 26 Oeste 35 Oeste 0 -- -- 88
2020-03-08 21:00:00 7.4 24 Oeste 34 Oeste 0 -- -- 85
2020-03-08 20:00:00 8.3 21 Oeste 27 Oeste 0 -- -- 83
2020-03-08 19:00:00 9.2 16 Sudoeste 26 Oeste 0 -- -- 80
2020-03-08 18:00:00 11.1 22 Oeste 28 Oeste 0 -- -- 65
2020-03-08 17:00:00 12.2 22 Oeste 29 Oeste 0 -- -- 54
2020-03-08 16:00:00 12.8 19 Oeste 28 Sudoeste 0 -- -- 50
2020-03-08 15:00:00 11.2 21 Oeste 28 Oeste 0 -- -- 55
2020-03-08 14:00:00 10.2 21 Oeste 27 Oeste 0 -- -- 60
2020-03-08 13:00:00 9 18 Oeste 27 Oeste 0 -- -- 66
2020-03-08 12:00:00 8.7 17 Sudoeste 24 Oeste 0 -- -- 68
2020-03-08 11:00:00 6.7 10 Sudoeste 21 Oeste 0 -- -- 86
2020-03-08 10:00:00 4.8 15 Sudoeste 20 Sudoeste 0 -- -- 95
2020-03-08 09:00:00 1.8 17 Sudoeste 22 Sudoeste 0 -- -- 99
2020-03-08 08:00:00 -0.5 13 Sudoeste 21 Sudoeste 0 -- -- 99
2020-03-08 07:00:00 -1 16 Sudoeste 18 Sudoeste 0 -- -- 99
2020-03-08 06:00:00 -1 14 Sudoeste 17 Sudoeste 0 -- -- 99
2020-03-08 05:00:00 -0.4 13 Sudoeste 17 Sudoeste 0 -- -- 97
2020-03-08 04:00:00 0.6 14 Sudoeste 18 Sudoeste 0 -- -- 96
2020-03-08 03:00:00 -0.1 15 Sudoeste 17 Sudoeste 0 -- -- 94
2020-03-08 02:00:00 1.3 14 Sudoeste 19 Sudoeste 0 -- -- 91
2020-03-08 01:00:00 2.3 19 Sudoeste 22 Sudoeste 0 -- -- 88
2020-03-08 00:00:00 2.2 15 Sudoeste 19 Sudoeste 0 -- -- 85